sensor_id;sensor_type;location;lat;lon;timestamp;temperature;humidity
2565;DHT22;1292;48.020;7.822;2022-10-31T06:47:32;11.40;99.90
2565;DHT22;1292;48.020;7.822;2022-10-31T06:49:59;11.40;99.90
2565;DHT22;1292;48.020;7.822;2022-10-31T06:52:26;11.50;99.90
2565;DHT22;1292;48.020;7.822;2022-10-31T06:54:53;11.50;99.90
2565;DHT22;1292;48.020;7.822;2022-10-31T06:57:19;11.50;99.90
2565;DHT22;1292;48.020;7.822;2022-10-31T06:59:46;11.60;99.90
2565;DHT22;1292;48.020;7.822;2022-10-31T07:02:13;11.60;99.90
2565;DHT22;1292;48.020;7.822;2022-10-31T07:04:42;11.60;99.90
2565;DHT22;1292;48.020;7.822;2022-10-31T07:07:09;11.60;99.90
2565;DHT22;1292;48.020;7.822;2022-10-31T07:09:35;11.70;99.90
2565;DHT22;1292;48.020;7.822;2022-10-31T07:12:02;11.80;99.90
2565;DHT22;1292;48.020;7.822;2022-10-31T07:14:29;11.90;99.90
2565;DHT22;1292;48.020;7.822;2022-10-31T07:16:56;12.00;99.90
2565;DHT22;1292;48.020;7.822;2022-10-31T07:19:23;12.00;99.90
2565;DHT22;1292;48.020;7.822;2022-10-31T07:21:51;12.10;99.90
2565;DHT22;1292;48.020;7.822;2022-10-31T07:24:18;12.10;99.90
2565;DHT22;1292;48.020;7.822;2022-10-31T07:26:45;12.20;99.90
2565;DHT22;1292;48.020;7.822;2022-10-31T07:29:12;12.20;99.90
2565;DHT22;1292;48.020;7.822;2022-10-31T07:31:39;12.30;99.90
2565;DHT22;1292;48.020;7.822;2022-10-31T07:34:06;12.40;99.90
2565;DHT22;1292;48.020;7.822;2022-10-31T07:36:33;12.50;99.90
2565;DHT22;1292;48.020;7.822;2022-10-31T07:39:01;12.50;99.90
2565;DHT22;1292;48.020;7.822;2022-10-31T07:41:28;12.60;99.90
2565;DHT22;1292;48.020;7.822;2022-10-31T07:43:55;12.60;99.90
2565;DHT22;1292;48.020;7.822;2022-10-31T07:46:22;12.70;99.90
2565;DHT22;1292;48.020;7.822;2022-10-31T07:48:49;12.80;99.90
2565;DHT22;1292;48.020;7.822;2022-10-31T07:51:16;12.90;99.90
2565;DHT22;1292;48.020;7.822;2022-10-31T07:53:42;13.00;99.90
2565;DHT22;1292;48.020;7.822;2022-10-31T07:56:11;13.10;99.90
2565;DHT22;1292;48.020;7.822;2022-10-31T07:58:37;13.20;99.90
2565;DHT22;1292;48.020;7.822;2022-10-31T08:01:04;13.30;99.90
2565;DHT22;1292;48.020;7.822;2022-10-31T08:03:31;13.40;99.90
2565;DHT22;1292;48.020;7.822;2022-10-31T08:05:58;13.40;99.90
2565;DHT22;1292;48.020;7.822;2022-10-31T08:08:25;13.50;99.90
2565;DHT22;1292;48.020;7.822;2022-10-31T08:10:54;13.60;99.90
2565;DHT22;1292;48.020;7.822;2022-10-31T08:13:22;13.70;99.90
2565;DHT22;1292;48.020;7.822;2022-10-31T08:15:49;13.80;99.90
2565;DHT22;1292;48.020;7.822;2022-10-31T08:18:17;13.80;99.90
2565;DHT22;1292;48.020;7.822;2022-10-31T08:20:44;13.90;99.90
2565;DHT22;1292;48.020;7.822;2022-10-31T08:23:12;14.00;99.90
2565;DHT22;1292;48.020;7.822;2022-10-31T08:25:39;14.00;99.90
2565;DHT22;1292;48.020;7.822;2022-10-31T08:28:08;14.10;99.90
2565;DHT22;1292;48.020;7.822;2022-10-31T08:30:39;14.20;99.90
2565;DHT22;1292;48.020;7.822;2022-10-31T08:33:09;14.30;99.90
2565;DHT22;1292;48.020;7.822;2022-10-31T08:35:36;14.40;99.90
2565;DHT22;1292;48.020;7.822;2022-10-31T08:38:03;14.40;99.90
2565;DHT22;1292;48.020;7.822;2022-10-31T08:40:31;14.50;99.90
2565;DHT22;1292;48.020;7.822;2022-10-31T08:43:00;14.50;99.90
2565;DHT22;1292;48.020;7.822;2022-10-31T08:45:27;14.60;99.90
2565;DHT22;1292;48.020;7.822;2022-10-31T08:47:58;14.70;99.90
2565;DHT22;1292;48.020;7.822;2022-10-31T08:50:26;14.70;99.90
2565;DHT22;1292;48.020;7.822;2022-10-31T08:52:53;14.80;99.90
2565;DHT22;1292;48.020;7.822;2022-10-31T08:55:20;14.80;99.90
2565;DHT22;1292;48.020;7.822;2022-10-31T08:57:47;14.90;99.90
2565;DHT22;1292;48.020;7.822;2022-10-31T09:00:14;15.00;99.90
2565;DHT22;1292;48.020;7.822;2022-10-31T09:02:41;15.00;99.90
2565;DHT22;1292;48.020;7.822;2022-10-31T09:05:09;15.10;99.90
2565;DHT22;1292;48.020;7.822;2022-10-31T09:07:36;15.10;99.90
2565;DHT22;1292;48.020;7.822;2022-10-31T09:10:03;15.20;99.90
2565;DHT22;1292;48.020;7.822;2022-10-31T09:12:30;15.20;99.90
2565;DHT22;1292;48.020;7.822;2022-10-31T09:14:57;15.30;99.90
2565;DHT22;1292;48.020;7.822;2022-10-31T09:17:26;15.40;99.90
2565;DHT22;1292;48.020;7.822;2022-10-31T09:19:54;15.40;99.90
2565;DHT22;1292;48.020;7.822;2022-10-31T09:22:22;15.50;99.90
2565;DHT22;1292;48.020;7.822;2022-10-31T09:24:49;15.50;99.90
2565;DHT22;1292;48.020;7.822;2022-10-31T09:27:16;15.60;99.90
2565;DHT22;1292;48.020;7.822;2022-10-31T09:29:43;15.70;99.90
2565;DHT22;1292;48.020;7.822;2022-10-31T09:32:10;15.70;99.90
2565;DHT22;1292;48.020;7.822;2022-10-31T09:34:37;15.80;99.90
2565;DHT22;1292;48.020;7.822;2022-10-31T09:37:03;15.90;99.90
2565;DHT22;1292;48.020;7.822;2022-10-31T09:39:31;15.80;99.90
2565;DHT22;1292;48.020;7.822;2022-10-31T09:42:11;15.90;99.90
2565;DHT22;1292;48.020;7.822;2022-10-31T09:44:49;16.00;99.90
2565;DHT22;1292;48.020;7.822;2022-10-31T09:47:31;16.00;99.90
2565;DHT22;1292;48.020;7.822;2022-10-31T09:50:12;16.10;99.90
2565;DHT22;1292;48.020;7.822;2022-10-31T09:52:44;16.20;99.90
2565;DHT22;1292;48.020;7.822;2022-10-31T09:55:18;16.10;99.90
2565;DHT22;1292;48.020;7.822;2022-10-31T09:57:46;16.10;99.90
2565;DHT22;1292;48.020;7.822;2022-10-31T10:00:16;16.10;99.90
2565;DHT22;1292;48.020;7.822;2022-10-31T10:02:47;16.20;99.90
2565;DHT22;1292;48.020;7.822;2022-10-31T10:05:19;16.20;99.90
2565;DHT22;1292;48.020;7.822;2022-10-31T10:07:53;16.30;99.90
2565;DHT22;1292;48.020;7.822;2022-10-31T10:10:30;16.20;99.90
2565;DHT22;1292;48.020;7.822;2022-10-31T10:13:12;16.30;99.90
2565;DHT22;1292;48.020;7.822;2022-10-31T10:15:55;16.30;99.90
2565;DHT22;1292;48.020;7.822;2022-10-31T10:18:33;16.40;99.90
2565;DHT22;1292;48.020;7.822;2022-10-31T10:21:14;16.50;99.90
2565;DHT22;1292;48.020;7.822;2022-10-31T10:23:54;16.60;99.90
2565;DHT22;1292;48.020;7.822;2022-10-31T10:26:30;16.60;99.90
2565;DHT22;1292;48.020;7.822;2022-10-31T10:29:01;16.60;99.90
2565;DHT22;1292;48.020;7.822;2022-10-31T10:31:32;16.70;99.90
2565;DHT22;1292;48.020;7.822;2022-10-31T10:34:07;16.70;99.90
2565;DHT22;1292;48.020;7.822;2022-10-31T10:36:39;16.70;99.90
2565;DHT22;1292;48.020;7.822;2022-10-31T10:39:14;16.70;99.90
2565;DHT22;1292;48.020;7.822;2022-10-31T10:41:47;16.80;99.90
2565;DHT22;1292;48.020;7.822;2022-10-31T10:44:28;16.80;99.90
2565;DHT22;1292;48.020;7.822;2022-10-31T10:47:12;16.80;99.90
2565;DHT22;1292;48.020;7.822;2022-10-31T10:49:56;16.80;99.90
2565;DHT22;1292;48.020;7.822;2022-10-31T10:52:29;16.80;99.90
2565;DHT22;1292;48.020;7.822;2022-10-31T10:55:05;16.60;99.90
2565;DHT22;1292;48.020;7.822;2022-10-31T10:57:49;16.60;99.90
2565;DHT22;1292;48.020;7.822;2022-10-31T11:00:21;16.60;99.90
2565;DHT22;1292;48.020;7.822;2022-10-31T11:02:49;16.50;99.90
2565;DHT22;1292;48.020;7.822;2022-10-31T11:05:23;16.50;99.90
2565;DHT22;1292;48.020;7.822;2022-10-31T11:07:50;16.60;99.90
2565;DHT22;1292;48.020;7.822;2022-10-31T11:10:17;16.60;99.90
2565;DHT22;1292;48.020;7.822;2022-10-31T11:13:02;16.60;99.90
2565;DHT22;1292;48.020;7.822;2022-10-31T11:15:35;16.60;99.90
2565;DHT22;1292;48.020;7.822;2022-10-31T11:18:02;16.70;99.90
2565;DHT22;1292;48.020;7.822;2022-10-31T11:20:31;16.70;99.90
2565;DHT22;1292;48.020;7.822;2022-10-31T11:23:10;16.90;99.90
2565;DHT22;1292;48.020;7.822;2022-10-31T11:25:48;16.90;99.90
2565;DHT22;1292;48.020;7.822;2022-10-31T11:28:17;16.90;99.90
2565;DHT22;1292;48.020;7.822;2022-10-31T11:30:47;17.00;99.90
2565;DHT22;1292;48.020;7.822;2022-10-31T11:33:19;17.10;99.90
2565;DHT22;1292;48.020;7.822;2022-10-31T11:35:47;17.20;99.90
2565;DHT22;1292;48.020;7.822;2022-10-31T11:38:19;17.20;99.90
2565;DHT22;1292;48.020;7.822;2022-10-31T11:40:53;17.30;99.90
2565;DHT22;1292;48.020;7.822;2022-10-31T11:43:23;17.40;99.90
2565;DHT22;1292;48.020;7.822;2022-10-31T11:45:50;17.40;99.90
2565;DHT22;1292;48.020;7.822;2022-10-31T11:48:19;17.50;99.90
2565;DHT22;1292;48.020;7.822;2022-10-31T11:50:51;17.40;99.90
2565;DHT22;1292;48.020;7.822;2022-10-31T11:53:20;17.40;99.90
2565;DHT22;1292;48.020;7.822;2022-10-31T11:56:01;17.50;99.90
2565;DHT22;1292;48.020;7.822;2022-10-31T11:58:30;17.60;99.90
2565;DHT22;1292;48.020;7.822;2022-10-31T12:00:58;17.70;99.90
2565;DHT22;1292;48.020;7.822;2022-10-31T12:03:36;17.70;99.90
2565;DHT22;1292;48.020;7.822;2022-10-31T12:06:07;17.70;99.90
2565;DHT22;1292;48.020;7.822;2022-10-31T12:08:36;17.80;99.90
2565;DHT22;1292;48.020;7.822;2022-10-31T12:11:15;17.80;99.90
2565;DHT22;1292;48.020;7.822;2022-10-31T12:13:55;17.90;99.90
2565;DHT22;1292;48.020;7.822;2022-10-31T12:16:30;17.90;99.90
2565;DHT22;1292;48.020;7.822;2022-10-31T12:19:01;17.90;99.90
2565;DHT22;1292;48.020;7.822;2022-10-31T12:22:02;18.10;99.90
2565;DHT22;1292;48.020;7.822;2022-10-31T12:24:49;18.10;99.90
2565;DHT22;1292;48.020;7.822;2022-10-31T12:27:28;18.20;99.90
2565;DHT22;1292;48.020;7.822;2022-10-31T12:30:14;18.30;99.90
2565;DHT22;1292;48.020;7.822;2022-10-31T12:33:14;18.30;99.90
2565;DHT22;1292;48.020;7.822;2022-10-31T12:35:49;18.30;99.90
2565;DHT22;1292;48.020;7.822;2022-10-31T12:38:42;18.40;99.90
2565;DHT22;1292;48.020;7.822;2022-10-31T12:41:32;18.40;99.90
2565;DHT22;1292;48.020;7.822;2022-10-31T12:44:06;18.50;99.90
2565;DHT22;1292;48.020;7.822;2022-10-31T12:46:50;18.50;99.90
2565;DHT22;1292;48.020;7.822;2022-10-31T12:49:32;18.60;99.90
2565;DHT22;1292;48.020;7.822;2022-10-31T12:52:10;18.70;99.90
2565;DHT22;1292;48.020;7.822;2022-10-31T12:54:57;18.70;99.90
2565;DHT22;1292;48.020;7.822;2022-10-31T12:57:32;18.70;99.90
2565;DHT22;1292;48.020;7.822;2022-10-31T13:00:03;18.80;99.90
2565;DHT22;1292;48.020;7.822;2022-10-31T13:02:37;18.80;99.90
2565;DHT22;1292;48.020;7.822;2022-10-31T13:05:13;18.90;99.90
2565;DHT22;1292;48.020;7.822;2022-10-31T13:07:45;18.90;99.90
2565;DHT22;1292;48.020;7.822;2022-10-31T13:10:17;18.90;99.90
2565;DHT22;1292;48.020;7.822;2022-10-31T13:12:48;18.80;99.90
2565;DHT22;1292;48.020;7.822;2022-10-31T13:15:19;18.80;99.90
2565;DHT22;1292;48.020;7.822;2022-10-31T13:17:51;18.70;99.90
2565;DHT22;1292;48.020;7.822;2022-10-31T13:20:26;18.70;99.90
2565;DHT22;1292;48.020;7.822;2022-10-31T13:23:00;18.60;99.90
2565;DHT22;1292;48.020;7.822;2022-10-31T13:25:38;18.70;99.90
2565;DHT22;1292;48.020;7.822;2022-10-31T13:28:12;18.70;99.90
2565;DHT22;1292;48.020;7.822;2022-10-31T13:30:47;18.60;99.90
2565;DHT22;1292;48.020;7.822;2022-10-31T13:33:20;18.60;99.90
2565;DHT22;1292;48.020;7.822;2022-10-31T13:35:52;18.60;99.90
2565;DHT22;1292;48.020;7.822;2022-10-31T13:38:24;18.50;99.90
2565;DHT22;1292;48.020;7.822;2022-10-31T13:40:59;18.60;99.90
2565;DHT22;1292;48.020;7.822;2022-10-31T13:43:32;18.60;99.90
2565;DHT22;1292;48.020;7.822;2022-10-31T13:46:21;18.70;99.90
2565;DHT22;1292;48.020;7.822;2022-10-31T13:48:50;18.70;99.90
2565;DHT22;1292;48.020;7.822;2022-10-31T13:51:25;18.80;99.90
2565;DHT22;1292;48.020;7.822;2022-10-31T13:53:59;18.70;99.90
2565;DHT22;1292;48.020;7.822;2022-10-31T13:56:28;18.70;99.90
2565;DHT22;1292;48.020;7.822;2022-10-31T13:59:13;18.80;99.90
2565;DHT22;1292;48.020;7.822;2022-10-31T14:01:53;18.70;99.90
2565;DHT22;1292;48.020;7.822;2022-10-31T14:04:24;18.70;99.90
2565;DHT22;1292;48.020;7.822;2022-10-31T14:06:58;18.70;99.90
2565;DHT22;1292;48.020;7.822;2022-10-31T14:09:28;18.80;99.90
2565;DHT22;1292;48.020;7.822;2022-10-31T14:11:58;18.70;99.90
2565;DHT22;1292;48.020;7.822;2022-10-31T14:14:32;18.70;99.90
2565;DHT22;1292;48.020;7.822;2022-10-31T14:17:00;18.70;99.90
2565;DHT22;1292;48.020;7.822;2022-10-31T14:19:29;18.70;99.90
2565;DHT22;1292;48.020;7.822;2022-10-31T14:21:56;18.70;99.90
2565;DHT22;1292;48.020;7.822;2022-10-31T14:24:36;18.70;99.90
2565;DHT22;1292;48.020;7.822;2022-10-31T14:29:47;18.60;99.90
2565;DHT22;1292;48.020;7.822;2022-10-31T14:32:20;18.60;99.90
2565;DHT22;1292;48.020;7.822;2022-10-31T14:34:55;18.60;99.90
2565;DHT22;1292;48.020;7.822;2022-10-31T14:37:38;18.60;99.90
2565;DHT22;1292;48.020;7.822;2022-10-31T14:40:24;18.60;99.90
2565;DHT22;1292;48.020;7.822;2022-10-31T14:43:16;18.50;99.90
2565;DHT22;1292;48.020;7.822;2022-10-31T14:45:52;18.50;99.90
2565;DHT22;1292;48.020;7.822;2022-10-31T14:48:34;18.60;99.90
2565;DHT22;1292;48.020;7.822;2022-10-31T14:51:10;18.60;99.90
2565;DHT22;1292;48.020;7.822;2022-10-31T14:53:44;18.50;99.90
2565;DHT22;1292;48.020;7.822;2022-10-31T14:56:14;18.50;99.90
2565;DHT22;1292;48.020;7.822;2022-10-31T14:58:45;18.40;99.90
2565;DHT22;1292;48.020;7.822;2022-10-31T15:01:18;18.40;99.90
2565;DHT22;1292;48.020;7.822;2022-10-31T15:03:46;18.30;99.90
2565;DHT22;1292;48.020;7.822;2022-10-31T15:06:16;18.30;99.90
2565;DHT22;1292;48.020;7.822;2022-10-31T15:08:45;18.30;99.90
2565;DHT22;1292;48.020;7.822;2022-10-31T15:11:14;18.30;99.90
2565;DHT22;1292;48.020;7.822;2022-10-31T15:13:43;18.30;99.90
2565;DHT22;1292;48.020;7.822;2022-10-31T15:16:12;18.30;99.90
2565;DHT22;1292;48.020;7.822;2022-10-31T15:18:52;18.40;99.90
2565;DHT22;1292;48.020;7.822;2022-10-31T15:21:23;18.30;99.90
2565;DHT22;1292;48.020;7.822;2022-10-31T15:23:53;18.40;99.90
2565;DHT22;1292;48.020;7.822;2022-10-31T15:26:21;18.40;99.90
2565;DHT22;1292;48.020;7.822;2022-10-31T15:28:58;18.40;99.90
2565;DHT22;1292;48.020;7.822;2022-10-31T15:31:26;18.40;99.90
2565;DHT22;1292;48.020;7.822;2022-10-31T15:33:53;18.40;99.90
2565;DHT22;1292;48.020;7.822;2022-10-31T15:36:25;18.30;99.90
2565;DHT22;1292;48.020;7.822;2022-10-31T15:38:52;18.20;99.90
2565;DHT22;1292;48.020;7.822;2022-10-31T15:41:28;18.20;99.90
2565;DHT22;1292;48.020;7.822;2022-10-31T15:44:00;18.20;99.90
2565;DHT22;1292;48.020;7.822;2022-10-31T15:46:28;18.10;99.90
2565;DHT22;1292;48.020;7.822;2022-10-31T15:48:56;18.10;99.90
2565;DHT22;1292;48.020;7.822;2022-10-31T15:51:29;18.00;99.90
2565;DHT22;1292;48.020;7.822;2022-10-31T15:53:58;17.90;99.90
2565;DHT22;1292;48.020;7.822;2022-10-31T15:56:27;17.90;99.90
2565;DHT22;1292;48.020;7.822;2022-10-31T15:58:57;17.80;99.90
2565;DHT22;1292;48.020;7.822;2022-10-31T16:01:26;17.80;99.90
2565;DHT22;1292;48.020;7.822;2022-10-31T16:04:02;17.70;99.90
2565;DHT22;1292;48.020;7.822;2022-10-31T16:06:32;17.50;99.90
2565;DHT22;1292;48.020;7.822;2022-10-31T16:08:59;17.50;99.90
2565;DHT22;1292;48.020;7.822;2022-10-31T16:11:32;17.40;99.90
2565;DHT22;1292;48.020;7.822;2022-10-31T16:14:03;17.40;99.90
2565;DHT22;1292;48.020;7.822;2022-10-31T16:16:32;17.30;99.90
2565;DHT22;1292;48.020;7.822;2022-10-31T16:19:01;17.30;99.90
2565;DHT22;1292;48.020;7.822;2022-10-31T16:21:31;17.10;99.90
2565;DHT22;1292;48.020;7.822;2022-10-31T16:24:02;17.00;99.90
2565;DHT22;1292;48.020;7.822;2022-10-31T16:26:30;17.00;99.90
2565;DHT22;1292;48.020;7.822;2022-10-31T16:28:58;16.90;99.90
2565;DHT22;1292;48.020;7.822;2022-10-31T16:31:30;16.80;99.90
2565;DHT22;1292;48.020;7.822;2022-10-31T16:34:10;16.70;99.90
2565;DHT22;1292;48.020;7.822;2022-10-31T16:36:41;16.60;99.90
2565;DHT22;1292;48.020;7.822;2022-10-31T16:39:08;16.50;99.90
2565;DHT22;1292;48.020;7.822;2022-10-31T16:41:38;16.50;99.90
2565;DHT22;1292;48.020;7.822;2022-10-31T16:44:12;16.40;99.90
2565;DHT22;1292;48.020;7.822;2022-10-31T16:46:40;16.40;99.90
2565;DHT22;1292;48.020;7.822;2022-10-31T16:49:08;16.30;99.90
2565;DHT22;1292;48.020;7.822;2022-10-31T16:51:35;16.30;99.90
2565;DHT22;1292;48.020;7.822;2022-10-31T16:54:03;16.30;99.90
2565;DHT22;1292;48.020;7.822;2022-10-31T16:56:32;16.20;99.90
2565;DHT22;1292;48.020;7.822;2022-10-31T16:59:02;16.10;99.90
2565;DHT22;1292;48.020;7.822;2022-10-31T17:01:30;16.00;99.90
2565;DHT22;1292;48.020;7.822;2022-10-31T17:03:57;16.00;99.90
2565;DHT22;1292;48.020;7.822;2022-10-31T17:06:24;15.90;99.90
2565;DHT22;1292;48.020;7.822;2022-10-31T17:08:53;15.90;99.90
2565;DHT22;1292;48.020;7.822;2022-10-31T17:11:23;15.90;99.90
2565;DHT22;1292;48.020;7.822;2022-10-31T17:13:51;15.70;99.90
2565;DHT22;1292;48.020;7.822;2022-10-31T17:16:18;15.70;99.90
2565;DHT22;1292;48.020;7.822;2022-10-31T17:18:45;15.70;99.90
2565;DHT22;1292;48.020;7.822;2022-10-31T17:21:16;15.60;99.90
2565;DHT22;1292;48.020;7.822;2022-10-31T17:23:44;15.60;99.90
2565;DHT22;1292;48.020;7.822;2022-10-31T17:26:11;15.60;99.90
2565;DHT22;1292;48.020;7.822;2022-10-31T17:28:39;15.50;99.90
2565;DHT22;1292;48.020;7.822;2022-10-31T17:31:07;15.50;99.90
2565;DHT22;1292;48.020;7.822;2022-10-31T17:33:37;15.50;99.90
2565;DHT22;1292;48.020;7.822;2022-10-31T17:36:05;15.40;99.90
2565;DHT22;1292;48.020;7.822;2022-10-31T17:38:32;15.40;99.90
2565;DHT22;1292;48.020;7.822;2022-10-31T17:40:58;15.40;99.90
2565;DHT22;1292;48.020;7.822;2022-10-31T17:43:30;15.40;99.90
2565;DHT22;1292;48.020;7.822;2022-10-31T17:45:59;15.30;99.90
2565;DHT22;1292;48.020;7.822;2022-10-31T17:48:26;15.10;99.90
2565;DHT22;1292;48.020;7.822;2022-10-31T17:50:53;15.20;99.90
2565;DHT22;1292;48.020;7.822;2022-10-31T17:53:20;15.10;99.90
2565;DHT22;1292;48.020;7.822;2022-10-31T17:55:47;15.00;99.90
2565;DHT22;1292;48.020;7.822;2022-10-31T17:58:14;14.90;99.90
2565;DHT22;1292;48.020;7.822;2022-10-31T18:00:40;14.90;99.90
2565;DHT22;1292;48.020;7.822;2022-10-31T18:03:09;15.00;99.90
2565;DHT22;1292;48.020;7.822;2022-10-31T18:05:35;14.90;99.90
2565;DHT22;1292;48.020;7.822;2022-10-31T18:08:03;14.80;99.90
2565;DHT22;1292;48.020;7.822;2022-10-31T18:10:30;14.80;99.90
2565;DHT22;1292;48.020;7.822;2022-10-31T18:12:57;14.80;99.90
2565;DHT22;1292;48.020;7.822;2022-10-31T18:15:24;14.70;99.90
2565;DHT22;1292;48.020;7.822;2022-10-31T18:17:51;14.80;99.90
2565;DHT22;1292;48.020;7.822;2022-10-31T18:20:19;14.80;99.90
2565;DHT22;1292;48.020;7.822;2022-10-31T18:22:46;14.70;99.90
2565;DHT22;1292;48.020;7.822;2022-10-31T18:25:12;14.80;99.90
2565;DHT22;1292;48.020;7.822;2022-10-31T18:27:39;14.70;99.90
2565;DHT22;1292;48.020;7.822;2022-10-31T18:30:07;14.70;99.90
2565;DHT22;1292;48.020;7.822;2022-10-31T18:32:34;14.70;99.90
2565;DHT22;1292;48.020;7.822;2022-10-31T18:35:01;14.60;99.90
2565;DHT22;1292;48.020;7.822;2022-10-31T18:37:29;14.60;99.90
2565;DHT22;1292;48.020;7.822;2022-10-31T18:39:56;14.60;99.90
2565;DHT22;1292;48.020;7.822;2022-10-31T18:42:23;14.70;99.90
2565;DHT22;1292;48.020;7.822;2022-10-31T18:44:49;14.60;99.90
2565;DHT22;1292;48.020;7.822;2022-10-31T18:47:16;14.60;99.90
2565;DHT22;1292;48.020;7.822;2022-10-31T18:49:44;14.50;99.90
2565;DHT22;1292;48.020;7.822;2022-10-31T18:52:11;14.50;99.90
2565;DHT22;1292;48.020;7.822;2022-10-31T18:54:39;14.50;99.90
2565;DHT22;1292;48.020;7.822;2022-10-31T18:57:06;14.50;99.90
2565;DHT22;1292;48.020;7.822;2022-10-31T18:59:33;14.40;99.90
2565;DHT22;1292;48.020;7.822;2022-10-31T19:02:00;14.40;99.90
2565;DHT22;1292;48.020;7.822;2022-10-31T19:04:27;14.40;99.90
2565;DHT22;1292;48.020;7.822;2022-10-31T19:06:54;14.30;99.90
2565;DHT22;1292;48.020;7.822;2022-10-31T19:09:21;14.40;99.90
2565;DHT22;1292;48.020;7.822;2022-10-31T19:11:50;14.10;99.90
2565;DHT22;1292;48.020;7.822;2022-10-31T19:14:17;14.10;99.90
2565;DHT22;1292;48.020;7.822;2022-10-31T19:16:43;14.10;99.90
2565;DHT22;1292;48.020;7.822;2022-10-31T19:19:10;14.10;99.90
2565;DHT22;1292;48.020;7.822;2022-10-31T19:21:37;14.00;99.90
2565;DHT22;1292;48.020;7.822;2022-10-31T19:24:04;13.90;99.90
2565;DHT22;1292;48.020;7.822;2022-10-31T19:26:32;13.80;99.90
2565;DHT22;1292;48.020;7.822;2022-10-31T19:29:00;13.80;99.90
2565;DHT22;1292;48.020;7.822;2022-10-31T19:31:27;13.80;99.90
2565;DHT22;1292;48.020;7.822;2022-10-31T19:33:54;13.80;99.90
2565;DHT22;1292;48.020;7.822;2022-10-31T19:36:21;13.90;99.90
2565;DHT22;1292;48.020;7.822;2022-10-31T19:38:49;13.80;99.90
2565;DHT22;1292;48.020;7.822;2022-10-31T19:41:18;13.90;99.90
2565;DHT22;1292;48.020;7.822;2022-10-31T19:43:46;13.90;99.90
2565;DHT22;1292;48.020;7.822;2022-10-31T19:46:16;13.90;99.90
2565;DHT22;1292;48.020;7.822;2022-10-31T19:48:43;13.90;99.90
2565;DHT22;1292;48.020;7.822;2022-10-31T19:51:12;13.90;99.90
2565;DHT22;1292;48.020;7.822;2022-10-31T19:53:40;13.90;99.90
2565;DHT22;1292;48.020;7.822;2022-10-31T19:56:10;13.90;99.90
2565;DHT22;1292;48.020;7.822;2022-10-31T19:58:37;13.90;99.90
2565;DHT22;1292;48.020;7.822;2022-10-31T20:01:08;13.90;99.90
2565;DHT22;1292;48.020;7.822;2022-10-31T20:03:37;13.80;99.90
2565;DHT22;1292;48.020;7.822;2022-10-31T20:06:05;13.80;99.90
2565;DHT22;1292;48.020;7.822;2022-10-31T20:08:32;13.80;99.90
2565;DHT22;1292;48.020;7.822;2022-10-31T20:11:02;13.80;99.90
2565;DHT22;1292;48.020;7.822;2022-10-31T20:13:30;13.60;99.90
2565;DHT22;1292;48.020;7.822;2022-10-31T20:15:59;13.60;99.90
2565;DHT22;1292;48.020;7.822;2022-10-31T20:18:26;13.60;99.90
2565;DHT22;1292;48.020;7.822;2022-10-31T20:21:00;13.60;99.90
2565;DHT22;1292;48.020;7.822;2022-10-31T20:23:27;13.60;99.90
2565;DHT22;1292;48.020;7.822;2022-10-31T20:25:54;13.50;99.90
2565;DHT22;1292;48.020;7.822;2022-10-31T20:28:21;13.50;99.90
2565;DHT22;1292;48.020;7.822;2022-10-31T20:30:48;13.50;99.90
2565;DHT22;1292;48.020;7.822;2022-10-31T20:33:14;13.50;99.90
2565;DHT22;1292;48.020;7.822;2022-10-31T20:35:41;13.50;99.90
2565;DHT22;1292;48.020;7.822;2022-10-31T20:38:09;13.50;99.90
2565;DHT22;1292;48.020;7.822;2022-10-31T20:40:36;13.40;99.90
2565;DHT22;1292;48.020;7.822;2022-10-31T20:43:03;13.30;99.90
2565;DHT22;1292;48.020;7.822;2022-10-31T20:45:31;13.30;99.90
2565;DHT22;1292;48.020;7.822;2022-10-31T20:47:58;13.30;99.90
2565;DHT22;1292;48.020;7.822;2022-10-31T20:50:25;13.40;99.90
2565;DHT22;1292;48.020;7.822;2022-10-31T20:52:52;13.40;99.90
2565;DHT22;1292;48.020;7.822;2022-10-31T20:55:20;13.30;99.90
2565;DHT22;1292;48.020;7.822;2022-10-31T20:57:47;13.20;99.90
2565;DHT22;1292;48.020;7.822;2022-10-31T21:00:14;13.10;99.90
2565;DHT22;1292;48.020;7.822;2022-10-31T21:02:42;12.90;99.90
2565;DHT22;1292;48.020;7.822;2022-10-31T21:05:09;12.80;99.90
2565;DHT22;1292;48.020;7.822;2022-10-31T21:07:36;12.80;99.90
2565;DHT22;1292;48.020;7.822;2022-10-31T21:10:04;12.80;99.90
2565;DHT22;1292;48.020;7.822;2022-10-31T21:12:41;12.70;99.90
2565;DHT22;1292;48.020;7.822;2022-10-31T21:15:09;12.80;99.90
2565;DHT22;1292;48.020;7.822;2022-10-31T21:17:36;12.80;99.90
2565;DHT22;1292;48.020;7.822;2022-10-31T21:20:04;12.80;99.90
2565;DHT22;1292;48.020;7.822;2022-10-31T21:22:31;12.80;99.90
2565;DHT22;1292;48.020;7.822;2022-10-31T21:24:58;12.80;99.90
2565;DHT22;1292;48.020;7.822;2022-10-31T21:27:25;12.80;99.90
2565;DHT22;1292;48.020;7.822;2022-10-31T21:29:53;12.80;99.90
2565;DHT22;1292;48.020;7.822;2022-10-31T21:32:20;12.80;99.90
2565;DHT22;1292;48.020;7.822;2022-10-31T21:34:47;12.70;99.90
2565;DHT22;1292;48.020;7.822;2022-10-31T21:37:15;12.70;99.90
2565;DHT22;1292;48.020;7.822;2022-10-31T21:39:42;12.70;99.90
2565;DHT22;1292;48.020;7.822;2022-10-31T21:42:09;12.80;99.90
2565;DHT22;1292;48.020;7.822;2022-10-31T21:44:36;12.90;99.90
2565;DHT22;1292;48.020;7.822;2022-10-31T21:47:04;12.90;99.90
2565;DHT22;1292;48.020;7.822;2022-10-31T21:49:31;12.90;99.90
2565;DHT22;1292;48.020;7.822;2022-10-31T21:51:58;12.80;99.90
2565;DHT22;1292;48.020;7.822;2022-10-31T21:54:25;12.90;99.90
2565;DHT22;1292;48.020;7.822;2022-10-31T21:56:54;13.00;99.90
2565;DHT22;1292;48.020;7.822;2022-10-31T21:59:22;13.10;99.90
